sensor_id;sensor_type;location;lat;lon;timestamp;temperature;humidity
53752;DHT22;41095;53.090;6.692;2023-03-21T00:00:37;10.00;99.90
53752;DHT22;41095;53.090;6.692;2023-03-21T00:03:02;10.00;99.90
53752;DHT22;41095;53.090;6.692;2023-03-21T00:05:28;10.00;99.90
53752;DHT22;41095;53.090;6.692;2023-03-21T00:07:55;10.00;99.90
53752;DHT22;41095;53.090;6.692;2023-03-21T00:10:21;9.90;99.90
53752;DHT22;41095;53.090;6.692;2023-03-21T00:12:47;10.00;99.90
53752;DHT22;41095;53.090;6.692;2023-03-21T00:15:20;10.00;99.90
53752;DHT22;41095;53.090;6.692;2023-03-21T00:17:45;9.90;99.90
53752;DHT22;41095;53.090;6.692;2023-03-21T00:20:15;10.00;99.90
53752;DHT22;41095;53.090;6.692;2023-03-21T00:22:41;10.00;99.90
53752;DHT22;41095;53.090;6.692;2023-03-21T00:25:08;10.00;99.90
53752;DHT22;41095;53.090;6.692;2023-03-21T00:27:35;10.00;99.90
53752;DHT22;41095;53.090;6.692;2023-03-21T00:30:02;10.00;99.90
53752;DHT22;41095;53.090;6.692;2023-03-21T00:32:28;10.00;99.90
53752;DHT22;41095;53.090;6.692;2023-03-21T00:34:53;10.00;99.90
53752;DHT22;41095;53.090;6.692;2023-03-21T00:37:19;10.00;99.90
53752;DHT22;41095;53.090;6.692;2023-03-21T00:39:47;10.00;99.90
53752;DHT22;41095;53.090;6.692;2023-03-21T00:42:14;10.00;99.90
53752;DHT22;41095;53.090;6.692;2023-03-21T00:44:41;10.00;99.90
53752;DHT22;41095;53.090;6.692;2023-03-21T00:47:08;10.00;99.90
53752;DHT22;41095;53.090;6.692;2023-03-21T00:49:33;10.00;99.90
53752;DHT22;41095;53.090;6.692;2023-03-21T00:52:04;10.00;99.90
53752;DHT22;41095;53.090;6.692;2023-03-21T00:54:32;10.00;99.90
53752;DHT22;41095;53.090;6.692;2023-03-21T00:56:58;10.00;99.90
53752;DHT22;41095;53.090;6.692;2023-03-21T00:59:23;10.00;99.90
53752;DHT22;41095;53.090;6.692;2023-03-21T01:01:49;10.00;99.90
53752;DHT22;41095;53.090;6.692;2023-03-21T01:04:18;9.90;99.90
53752;DHT22;41095;53.090;6.692;2023-03-21T01:06:46;9.90;99.90
53752;DHT22;41095;53.090;6.692;2023-03-21T01:09:21;10.00;99.90
53752;DHT22;41095;53.090;6.692;2023-03-21T01:11:48;10.00;99.90
53752;DHT22;41095;53.090;6.692;2023-03-21T01:14:15;9.90;99.90
53752;DHT22;41095;53.090;6.692;2023-03-21T01:16:42;9.90;99.90
53752;DHT22;41095;53.090;6.692;2023-03-21T01:19:11;9.90;99.90
53752;DHT22;41095;53.090;6.692;2023-03-21T01:21:38;9.90;99.90
53752;DHT22;41095;53.090;6.692;2023-03-21T01:24:04;9.90;99.90
53752;DHT22;41095;53.090;6.692;2023-03-21T01:26:30;10.00;99.90
53752;DHT22;41095;53.090;6.692;2023-03-21T01:28:55;10.00;99.90
53752;DHT22;41095;53.090;6.692;2023-03-21T01:31:21;10.00;99.90
53752;DHT22;41095;53.090;6.692;2023-03-21T01:33:47;10.00;99.90
53752;DHT22;41095;53.090;6.692;2023-03-21T01:36:16;10.00;99.90
53752;DHT22;41095;53.090;6.692;2023-03-21T01:38:42;10.00;99.90
53752;DHT22;41095;53.090;6.692;2023-03-21T01:41:25;9.90;99.90
53752;DHT22;41095;53.090;6.692;2023-03-21T01:43:52;10.00;99.90
53752;DHT22;41095;53.090;6.692;2023-03-21T01:46:37;10.00;99.90
53752;DHT22;41095;53.090;6.692;2023-03-21T01:49:25;10.00;99.90
53752;DHT22;41095;53.090;6.692;2023-03-21T01:52:05;10.00;99.90
53752;DHT22;41095;53.090;6.692;2023-03-21T01:54:34;10.10;99.90
53752;DHT22;41095;53.090;6.692;2023-03-21T01:57:07;10.00;99.90
53752;DHT22;41095;53.090;6.692;2023-03-21T01:59:41;10.00;99.90
53752;DHT22;41095;53.090;6.692;2023-03-21T02:02:11;10.00;99.90
53752;DHT22;41095;53.090;6.692;2023-03-21T02:04:39;10.00;99.90
53752;DHT22;41095;53.090;6.692;2023-03-21T02:07:14;10.00;99.90
53752;DHT22;41095;53.090;6.692;2023-03-21T02:09:48;10.00;99.90
53752;DHT22;41095;53.090;6.692;2023-03-21T02:12:14;10.00;99.90
53752;DHT22;41095;53.090;6.692;2023-03-21T02:14:41;10.10;99.90
53752;DHT22;41095;53.090;6.692;2023-03-21T02:27:51;10.10;99.90
53752;DHT22;41095;53.090;6.692;2023-03-21T02:38:59;10.00;99.90
53752;DHT22;41095;53.090;6.692;2023-03-21T02:44:23;10.00;99.90
53752;DHT22;41095;53.090;6.692;2023-03-21T02:46:55;10.10;99.90
53752;DHT22;41095;53.090;6.692;2023-03-21T02:49:30;10.00;99.90
53752;DHT22;41095;53.090;6.692;2023-03-21T02:51:58;10.00;99.90
53752;DHT22;41095;53.090;6.692;2023-03-21T02:54:25;10.00;99.90
53752;DHT22;41095;53.090;6.692;2023-03-21T02:56:54;10.10;99.90
53752;DHT22;41095;53.090;6.692;2023-03-21T02:59:22;10.10;99.90
53752;DHT22;41095;53.090;6.692;2023-03-21T03:01:50;10.10;99.90
53752;DHT22;41095;53.090;6.692;2023-03-21T03:04:22;10.10;99.90
53752;DHT22;41095;53.090;6.692;2023-03-21T03:18:23;10.10;99.90
53752;DHT22;41095;53.090;6.692;2023-03-21T03:26:23;10.10;99.90
53752;DHT22;41095;53.090;6.692;2023-03-21T03:28:53;10.00;99.90
53752;DHT22;41095;53.090;6.692;2023-03-21T03:31:31;10.10;99.90
53752;DHT22;41095;53.090;6.692;2023-03-21T03:34:01;10.10;99.90
53752;DHT22;41095;53.090;6.692;2023-03-21T03:36:31;10.10;99.90
53752;DHT22;41095;53.090;6.692;2023-03-21T03:39:02;10.10;99.90
53752;DHT22;41095;53.090;6.692;2023-03-21T03:41:34;10.10;99.90
53752;DHT22;41095;53.090;6.692;2023-03-21T03:44:02;10.10;99.90
53752;DHT22;41095;53.090;6.692;2023-03-21T03:46:39;10.10;99.90
53752;DHT22;41095;53.090;6.692;2023-03-21T03:49:12;10.10;99.90
53752;DHT22;41095;53.090;6.692;2023-03-21T03:51:50;10.10;99.90
53752;DHT22;41095;53.090;6.692;2023-03-21T03:54:27;10.10;99.90
53752;DHT22;41095;53.090;6.692;2023-03-21T03:56:54;10.10;99.90
53752;DHT22;41095;53.090;6.692;2023-03-21T03:59:20;10.10;99.90
53752;DHT22;41095;53.090;6.692;2023-03-21T04:01:46;10.10;99.90
53752;DHT22;41095;53.090;6.692;2023-03-21T04:04:13;10.10;99.90
53752;DHT22;41095;53.090;6.692;2023-03-21T04:06:44;10.20;99.90
53752;DHT22;41095;53.090;6.692;2023-03-21T04:09:16;10.20;99.90
53752;DHT22;41095;53.090;6.692;2023-03-21T04:11:42;10.10;99.90
53752;DHT22;41095;53.090;6.692;2023-03-21T04:14:08;10.20;99.90
53752;DHT22;41095;53.090;6.692;2023-03-21T04:16:34;10.20;99.90
53752;DHT22;41095;53.090;6.692;2023-03-21T04:18:59;10.20;99.90
53752;DHT22;41095;53.090;6.692;2023-03-21T04:21:25;10.20;99.90
53752;DHT22;41095;53.090;6.692;2023-03-21T04:23:52;10.20;99.90
53752;DHT22;41095;53.090;6.692;2023-03-21T04:26:20;10.20;99.90
53752;DHT22;41095;53.090;6.692;2023-03-21T04:28:47;10.20;99.90
53752;DHT22;41095;53.090;6.692;2023-03-21T04:31:12;10.20;99.90
53752;DHT22;41095;53.090;6.692;2023-03-21T04:33:39;10.10;99.90
53752;DHT22;41095;53.090;6.692;2023-03-21T04:36:05;10.10;99.90
53752;DHT22;41095;53.090;6.692;2023-03-21T04:38:34;10.10;99.90
53752;DHT22;41095;53.090;6.692;2023-03-21T04:41:01;10.20;99.90
53752;DHT22;41095;53.090;6.692;2023-03-21T04:43:27;10.20;99.90
53752;DHT22;41095;53.090;6.692;2023-03-21T04:45:53;10.20;99.90
53752;DHT22;41095;53.090;6.692;2023-03-21T04:48:19;10.20;99.90
53752;DHT22;41095;53.090;6.692;2023-03-21T04:50:49;10.20;99.90
53752;DHT22;41095;53.090;6.692;2023-03-21T04:53:16;10.10;99.90
53752;DHT22;41095;53.090;6.692;2023-03-21T04:55:42;10.10;99.90
53752;DHT22;41095;53.090;6.692;2023-03-21T04:58:07;10.10;99.90
53752;DHT22;41095;53.090;6.692;2023-03-21T05:00:33;10.10;99.90
53752;DHT22;41095;53.090;6.692;2023-03-21T05:03:06;10.10;99.90
53752;DHT22;41095;53.090;6.692;2023-03-21T05:05:38;10.10;99.90
53752;DHT22;41095;53.090;6.692;2023-03-21T05:08:04;10.10;99.90
53752;DHT22;41095;53.090;6.692;2023-03-21T05:10:31;10.10;99.90
53752;DHT22;41095;53.090;6.692;2023-03-21T05:12:56;10.10;99.90
53752;DHT22;41095;53.090;6.692;2023-03-21T05:15:22;10.10;99.90
53752;DHT22;41095;53.090;6.692;2023-03-21T05:17:48;10.10;99.90
53752;DHT22;41095;53.090;6.692;2023-03-21T05:20:14;10.10;99.90
53752;DHT22;41095;53.090;6.692;2023-03-21T05:22:42;10.10;99.90
53752;DHT22;41095;53.090;6.692;2023-03-21T05:25:11;10.20;99.90
53752;DHT22;41095;53.090;6.692;2023-03-21T05:27:37;10.10;99.90
53752;DHT22;41095;53.090;6.692;2023-03-21T05:30:17;10.10;99.90
53752;DHT22;41095;53.090;6.692;2023-03-21T05:32:43;10.00;99.90
53752;DHT22;41095;53.090;6.692;2023-03-21T05:35:09;10.00;99.90
53752;DHT22;41095;53.090;6.692;2023-03-21T05:37:35;10.00;99.90
53752;DHT22;41095;53.090;6.692;2023-03-21T05:40:01;10.00;99.90
53752;DHT22;41095;53.090;6.692;2023-03-21T05:42:26;10.00;99.90
53752;DHT22;41095;53.090;6.692;2023-03-21T05:44:52;10.00;99.90
53752;DHT22;41095;53.090;6.692;2023-03-21T05:47:18;10.10;99.90
53752;DHT22;41095;53.090;6.692;2023-03-21T05:49:44;10.00;99.90
53752;DHT22;41095;53.090;6.692;2023-03-21T05:52:10;10.00;99.90
53752;DHT22;41095;53.090;6.692;2023-03-21T05:54:36;10.00;99.90
53752;DHT22;41095;53.090;6.692;2023-03-21T05:57:03;9.90;99.90
53752;DHT22;41095;53.090;6.692;2023-03-21T05:59:29;10.00;99.90
53752;DHT22;41095;53.090;6.692;2023-03-21T06:01:55;10.00;99.90
53752;DHT22;41095;53.090;6.692;2023-03-21T06:04:21;10.00;99.90
53752;DHT22;41095;53.090;6.692;2023-03-21T06:06:46;10.00;99.90
53752;DHT22;41095;53.090;6.692;2023-03-21T06:09:12;10.00;99.90
53752;DHT22;41095;53.090;6.692;2023-03-21T06:11:41;10.00;99.90
53752;DHT22;41095;53.090;6.692;2023-03-21T06:14:08;10.00;99.90
53752;DHT22;41095;53.090;6.692;2023-03-21T06:16:34;10.00;99.90
53752;DHT22;41095;53.090;6.692;2023-03-21T06:18:59;10.00;99.90
53752;DHT22;41095;53.090;6.692;2023-03-21T06:21:25;10.00;99.90
53752;DHT22;41095;53.090;6.692;2023-03-21T06:23:51;10.00;99.90
53752;DHT22;41095;53.090;6.692;2023-03-21T06:26:17;10.00;99.90
53752;DHT22;41095;53.090;6.692;2023-03-21T06:28:52;10.00;99.90
53752;DHT22;41095;53.090;6.692;2023-03-21T06:31:18;9.90;99.90
53752;DHT22;41095;53.090;6.692;2023-03-21T06:33:48;9.90;99.90
53752;DHT22;41095;53.090;6.692;2023-03-21T06:36:14;10.00;99.90
53752;DHT22;41095;53.090;6.692;2023-03-21T06:38:40;10.00;99.90
53752;DHT22;41095;53.090;6.692;2023-03-21T06:41:06;10.10;99.90
53752;DHT22;41095;53.090;6.692;2023-03-21T06:43:32;10.10;99.90
53752;DHT22;41095;53.090;6.692;2023-03-21T06:45:59;10.10;99.90
53752;DHT22;41095;53.090;6.692;2023-03-21T06:48:26;10.00;99.90
53752;DHT22;41095;53.090;6.692;2023-03-21T06:50:53;10.10;99.90
53752;DHT22;41095;53.090;6.692;2023-03-21T06:53:23;10.10;99.90
53752;DHT22;41095;53.090;6.692;2023-03-21T06:55:52;10.10;99.90
53752;DHT22;41095;53.090;6.692;2023-03-21T06:58:18;10.00;99.90
53752;DHT22;41095;53.090;6.692;2023-03-21T07:00:44;10.10;99.90
53752;DHT22;41095;53.090;6.692;2023-03-21T07:03:11;10.00;99.90
53752;DHT22;41095;53.090;6.692;2023-03-21T07:05:37;10.00;99.90
53752;DHT22;41095;53.090;6.692;2023-03-21T07:08:04;10.00;99.90
53752;DHT22;41095;53.090;6.692;2023-03-21T07:10:30;10.10;99.90
53752;DHT22;41095;53.090;6.692;2023-03-21T07:12:58;10.10;99.90
53752;DHT22;41095;53.090;6.692;2023-03-21T07:15:24;10.10;99.90
53752;DHT22;41095;53.090;6.692;2023-03-21T07:17:50;10.10;99.90
53752;DHT22;41095;53.090;6.692;2023-03-21T07:20:16;10.10;99.90
53752;DHT22;41095;53.090;6.692;2023-03-21T07:22:42;10.10;99.90
53752;DHT22;41095;53.090;6.692;2023-03-21T07:25:09;10.20;99.90
53752;DHT22;41095;53.090;6.692;2023-03-21T07:27:35;10.10;99.90
53752;DHT22;41095;53.090;6.692;2023-03-21T07:30:05;10.10;99.90
53752;DHT22;41095;53.090;6.692;2023-03-21T07:32:34;10.20;99.90
53752;DHT22;41095;53.090;6.692;2023-03-21T07:35:02;10.20;99.90
53752;DHT22;41095;53.090;6.692;2023-03-21T07:37:28;10.20;99.90
53752;DHT22;41095;53.090;6.692;2023-03-21T07:39:54;10.20;99.90
53752;DHT22;41095;53.090;6.692;2023-03-21T07:42:20;10.20;99.90
53752;DHT22;41095;53.090;6.692;2023-03-21T07:44:45;10.20;99.90
53752;DHT22;41095;53.090;6.692;2023-03-21T07:47:11;10.30;99.90
53752;DHT22;41095;53.090;6.692;2023-03-21T07:49:37;10.40;99.90
53752;DHT22;41095;53.090;6.692;2023-03-21T07:52:03;10.40;99.90
53752;DHT22;41095;53.090;6.692;2023-03-21T07:54:29;10.40;99.90
53752;DHT22;41095;53.090;6.692;2023-03-21T07:56:55;10.40;99.90
53752;DHT22;41095;53.090;6.692;2023-03-21T07:59:22;10.40;99.90
53752;DHT22;41095;53.090;6.692;2023-03-21T08:01:47;10.40;99.90
53752;DHT22;41095;53.090;6.692;2023-03-21T08:04:13;10.30;99.90
53752;DHT22;41095;53.090;6.692;2023-03-21T08:06:39;10.30;99.90
53752;DHT22;41095;53.090;6.692;2023-03-21T08:09:06;10.40;99.90
53752;DHT22;41095;53.090;6.692;2023-03-21T08:11:31;10.30;99.90
53752;DHT22;41095;53.090;6.692;2023-03-21T08:13:58;10.30;99.90
53752;DHT22;41095;53.090;6.692;2023-03-21T08:16:24;10.40;99.90
53752;DHT22;41095;53.090;6.692;2023-03-21T08:18:50;10.40;99.90
53752;DHT22;41095;53.090;6.692;2023-03-21T08:21:16;10.40;99.90
53752;DHT22;41095;53.090;6.692;2023-03-21T08:23:42;10.30;99.90
53752;DHT22;41095;53.090;6.692;2023-03-21T08:26:08;10.30;99.90
53752;DHT22;41095;53.090;6.692;2023-03-21T08:28:35;10.30;99.90
53752;DHT22;41095;53.090;6.692;2023-03-21T08:31:06;10.40;99.90
53752;DHT22;41095;53.090;6.692;2023-03-21T08:33:32;10.40;99.90
53752;DHT22;41095;53.090;6.692;2023-03-21T08:36:01;10.30;99.90
53752;DHT22;41095;53.090;6.692;2023-03-21T08:38:27;10.30;99.90
53752;DHT22;41095;53.090;6.692;2023-03-21T08:40:57;10.30;99.90
53752;DHT22;41095;53.090;6.692;2023-03-21T08:43:25;10.30;99.90
53752;DHT22;41095;53.090;6.692;2023-03-21T08:45:51;10.30;99.90
53752;DHT22;41095;53.090;6.692;2023-03-21T08:48:16;10.30;99.90
53752;DHT22;41095;53.090;6.692;2023-03-21T08:50:42;10.40;99.90
53752;DHT22;41095;53.090;6.692;2023-03-21T08:53:08;10.40;99.90
53752;DHT22;41095;53.090;6.692;2023-03-21T08:55:34;10.40;99.90
53752;DHT22;41095;53.090;6.692;2023-03-21T08:58:00;10.40;99.90
53752;DHT22;41095;53.090;6.692;2023-03-21T09:00:26;10.40;99.90
53752;DHT22;41095;53.090;6.692;2023-03-21T09:02:53;10.40;99.90
53752;DHT22;41095;53.090;6.692;2023-03-21T09:05:19;10.40;99.90
53752;DHT22;41095;53.090;6.692;2023-03-21T09:07:46;10.40;99.90
53752;DHT22;41095;53.090;6.692;2023-03-21T09:10:15;10.40;99.90
53752;DHT22;41095;53.090;6.692;2023-03-21T09:12:41;10.50;99.90
53752;DHT22;41095;53.090;6.692;2023-03-21T09:15:08;10.50;99.90
53752;DHT22;41095;53.090;6.692;2023-03-21T09:17:34;10.50;99.90
53752;DHT22;41095;53.090;6.692;2023-03-21T09:20:01;10.50;99.90
53752;DHT22;41095;53.090;6.692;2023-03-21T09:22:32;10.50;99.90
53752;DHT22;41095;53.090;6.692;2023-03-21T09:24:58;10.50;99.90
53752;DHT22;41095;53.090;6.692;2023-03-21T09:27:31;10.50;99.90
53752;DHT22;41095;53.090;6.692;2023-03-21T09:29:57;10.50;99.90
53752;DHT22;41095;53.090;6.692;2023-03-21T09:32:24;10.50;99.90
53752;DHT22;41095;53.090;6.692;2023-03-21T09:34:50;10.50;99.90
53752;DHT22;41095;53.090;6.692;2023-03-21T09:37:17;10.60;99.90
53752;DHT22;41095;53.090;6.692;2023-03-21T09:39:43;10.50;99.90
53752;DHT22;41095;53.090;6.692;2023-03-21T09:45:18;10.60;99.90
53752;DHT22;41095;53.090;6.692;2023-03-21T09:47:47;10.50;99.90
53752;DHT22;41095;53.090;6.692;2023-03-21T09:50:34;10.50;99.90
53752;DHT22;41095;53.090;6.692;2023-03-21T09:53:11;10.50;99.90
53752;DHT22;41095;53.090;6.692;2023-03-21T09:55:40;10.50;99.90
53752;DHT22;41095;53.090;6.692;2023-03-21T09:58:40;10.40;99.90
53752;DHT22;41095;53.090;6.692;2023-03-21T10:01:09;10.40;99.90
53752;DHT22;41095;53.090;6.692;2023-03-21T10:03:47;10.50;99.90
53752;DHT22;41095;53.090;6.692;2023-03-21T10:06:15;10.40;99.90
53752;DHT22;41095;53.090;6.692;2023-03-21T10:08:44;10.40;99.90
53752;DHT22;41095;53.090;6.692;2023-03-21T10:11:31;10.40;99.90
53752;DHT22;41095;53.090;6.692;2023-03-21T10:14:51;10.40;99.90
53752;DHT22;41095;53.090;6.692;2023-03-21T10:16:56;10.30;99.90
53752;DHT22;41095;53.090;6.692;2023-03-21T10:19:23;10.40;99.90
53752;DHT22;41095;53.090;6.692;2023-03-21T10:21:50;10.30;99.90
53752;DHT22;41095;53.090;6.692;2023-03-21T10:24:22;10.30;99.90
53752;DHT22;41095;53.090;6.692;2023-03-21T10:26:49;10.30;99.90
53752;DHT22;41095;53.090;6.692;2023-03-21T10:29:16;10.30;99.90
53752;DHT22;41095;53.090;6.692;2023-03-21T10:31:44;10.30;99.90
53752;DHT22;41095;53.090;6.692;2023-03-21T10:34:38;10.30;99.90
53752;DHT22;41095;53.090;6.692;2023-03-21T10:37:05;10.30;99.90
53752;DHT22;41095;53.090;6.692;2023-03-21T10:39:44;10.30;99.90
53752;DHT22;41095;53.090;6.692;2023-03-21T10:42:21;10.30;99.90
53752;DHT22;41095;53.090;6.692;2023-03-21T10:44:50;10.30;99.90
53752;DHT22;41095;53.090;6.692;2023-03-21T10:47:22;10.30;99.90
53752;DHT22;41095;53.090;6.692;2023-03-21T10:49:49;10.40;99.90
53752;DHT22;41095;53.090;6.692;2023-03-21T10:52:18;10.40;99.90
53752;DHT22;41095;53.090;6.692;2023-03-21T10:54:44;10.50;99.90
53752;DHT22;41095;53.090;6.692;2023-03-21T10:57:20;10.50;99.90
53752;DHT22;41095;53.090;6.692;2023-03-21T11:02:36;10.60;99.90
53752;DHT22;41095;53.090;6.692;2023-03-21T11:05:21;10.60;99.90
53752;DHT22;41095;53.090;6.692;2023-03-21T11:08:13;10.70;99.90
53752;DHT22;41095;53.090;6.692;2023-03-21T11:11:05;10.80;99.90
53752;DHT22;41095;53.090;6.692;2023-03-21T11:13:43;11.00;99.90
53752;DHT22;41095;53.090;6.692;2023-03-21T11:16:12;11.10;99.90
53752;DHT22;41095;53.090;6.692;2023-03-21T11:18:48;11.20;99.90
53752;DHT22;41095;53.090;6.692;2023-03-21T11:21:14;11.30;99.90
53752;DHT22;41095;53.090;6.692;2023-03-21T11:23:44;11.30;99.90
53752;DHT22;41095;53.090;6.692;2023-03-21T11:26:26;11.40;99.90
53752;DHT22;41095;53.090;6.692;2023-03-21T11:28:55;11.50;99.90
53752;DHT22;41095;53.090;6.692;2023-03-21T11:31:22;11.50;99.90
53752;DHT22;41095;53.090;6.692;2023-03-21T11:34:05;11.60;99.90
53752;DHT22;41095;53.090;6.692;2023-03-21T11:36:37;11.70;99.90
53752;DHT22;41095;53.090;6.692;2023-03-21T11:41:51;11.70;99.90
53752;DHT22;41095;53.090;6.692;2023-03-21T11:44:34;11.80;99.90
53752;DHT22;41095;53.090;6.692;2023-03-21T11:47:08;11.80;99.90
53752;DHT22;41095;53.090;6.692;2023-03-21T11:49:35;11.90;99.90
53752;DHT22;41095;53.090;6.692;2023-03-21T11:52:19;11.90;99.90
53752;DHT22;41095;53.090;6.692;2023-03-21T11:55:28;12.00;99.90
53752;DHT22;41095;53.090;6.692;2023-03-21T11:58:09;12.00;99.90
53752;DHT22;41095;53.090;6.692;2023-03-21T12:06:16;12.10;99.90
53752;DHT22;41095;53.090;6.692;2023-03-21T12:11:39;12.20;99.90
53752;DHT22;41095;53.090;6.692;2023-03-21T12:17:33;12.30;99.90
53752;DHT22;41095;53.090;6.692;2023-03-21T12:20:15;12.40;99.90
53752;DHT22;41095;53.090;6.692;2023-03-21T12:22:49;12.40;99.90
53752;DHT22;41095;53.090;6.692;2023-03-21T12:25:28;12.40;99.90
53752;DHT22;41095;53.090;6.692;2023-03-21T12:28:27;12.40;99.90
53752;DHT22;41095;53.090;6.692;2023-03-21T12:31:12;12.30;99.90
53752;DHT22;41095;53.090;6.692;2023-03-21T12:34:47;12.20;99.90
53752;DHT22;41095;53.090;6.692;2023-03-21T12:39:30;12.10;99.90
53752;DHT22;41095;53.090;6.692;2023-03-21T12:44:27;12.00;99.90
53752;DHT22;41095;53.090;6.692;2023-03-21T12:49:31;11.90;99.90
53752;DHT22;41095;53.090;6.692;2023-03-21T12:52:18;11.90;99.90
53752;DHT22;41095;53.090;6.692;2023-03-21T12:57:44;11.90;99.90
53752;DHT22;41095;53.090;6.692;2023-03-21T13:00:20;11.90;99.90
53752;DHT22;41095;53.090;6.692;2023-03-21T13:03:11;12.00;99.90
53752;DHT22;41095;53.090;6.692;2023-03-21T13:05:41;12.00;99.90
53752;DHT22;41095;53.090;6.692;2023-03-21T13:10:57;12.10;99.90
53752;DHT22;41095;53.090;6.692;2023-03-21T13:13:34;12.10;99.90
53752;DHT22;41095;53.090;6.692;2023-03-21T13:16:12;12.10;99.90
53752;DHT22;41095;53.090;6.692;2023-03-21T13:19:01;12.10;99.90
53752;DHT22;41095;53.090;6.692;2023-03-21T13:24:47;12.20;99.90
53752;DHT22;41095;53.090;6.692;2023-03-21T13:27:32;12.20;99.90
53752;DHT22;41095;53.090;6.692;2023-03-21T13:32:42;12.60;99.90
53752;DHT22;41095;53.090;6.692;2023-03-21T13:37:39;12.80;99.90
53752;DHT22;41095;53.090;6.692;2023-03-21T13:40:19;12.80;99.90
53752;DHT22;41095;53.090;6.692;2023-03-21T13:42:51;12.90;99.90
53752;DHT22;41095;53.090;6.692;2023-03-21T13:45:29;13.00;99.90
53752;DHT22;41095;53.090;6.692;2023-03-21T13:47:58;13.00;99.90
53752;DHT22;41095;53.090;6.692;2023-03-21T13:50:48;13.10;99.90
53752;DHT22;41095;53.090;6.692;2023-03-21T13:55:42;13.10;99.90
53752;DHT22;41095;53.090;6.692;2023-03-21T14:03:44;12.90;99.90
53752;DHT22;41095;53.090;6.692;2023-03-21T14:06:12;12.90;99.90
53752;DHT22;41095;53.090;6.692;2023-03-21T14:08:40;12.90;99.90
53752;DHT22;41095;53.090;6.692;2023-03-21T14:11:11;12.90;99.90
53752;DHT22;41095;53.090;6.692;2023-03-21T14:13:41;12.90;99.90
53752;DHT22;41095;53.090;6.692;2023-03-21T14:16:14;13.00;99.90
53752;DHT22;41095;53.090;6.692;2023-03-21T14:18:44;13.00;99.90
53752;DHT22;41095;53.090;6.692;2023-03-21T14:21:20;13.00;99.90
53752;DHT22;41095;53.090;6.692;2023-03-21T14:23:46;13.10;99.90
53752;DHT22;41095;53.090;6.692;2023-03-21T14:26:12;13.20;99.90
53752;DHT22;41095;53.090;6.692;2023-03-21T14:28:48;13.40;99.90
53752;DHT22;41095;53.090;6.692;2023-03-21T14:31:14;13.40;99.90
53752;DHT22;41095;53.090;6.692;2023-03-21T14:33:47;13.40;99.90
53752;DHT22;41095;53.090;6.692;2023-03-21T14:36:25;13.60;99.90
53752;DHT22;41095;53.090;6.692;2023-03-21T14:39:04;13.80;99.90
53752;DHT22;41095;53.090;6.692;2023-03-21T14:41:32;14.00;99.90
53752;DHT22;41095;53.090;6.692;2023-03-21T14:44:18;14.10;99.90
53752;DHT22;41095;53.090;6.692;2023-03-21T14:46:50;14.00;99.90
53752;DHT22;41095;53.090;6.692;2023-03-21T14:49:30;13.90;99.90
53752;DHT22;41095;53.090;6.692;2023-03-21T14:52:00;13.80;99.90
53752;DHT22;41095;53.090;6.692;2023-03-21T14:54:27;13.80;99.90
53752;DHT22;41095;53.090;6.692;2023-03-21T14:57:02;13.80;99.90
53752;DHT22;41095;53.090;6.692;2023-03-21T14:59:33;13.70;99.90
53752;DHT22;41095;53.090;6.692;2023-03-21T15:02:04;13.60;99.90
53752;DHT22;41095;53.090;6.692;2023-03-21T15:04:30;13.50;99.90
53752;DHT22;41095;53.090;6.692;2023-03-21T15:07:01;13.50;99.90
53752;DHT22;41095;53.090;6.692;2023-03-21T15:09:32;13.50;99.90
53752;DHT22;41095;53.090;6.692;2023-03-21T15:12:00;13.70;99.90
53752;DHT22;41095;53.090;6.692;2023-03-21T15:14:32;13.70;99.90
53752;DHT22;41095;53.090;6.692;2023-03-21T15:17:00;13.70;99.90
53752;DHT22;41095;53.090;6.692;2023-03-21T15:19:33;13.70;99.90
53752;DHT22;41095;53.090;6.692;2023-03-21T15:22:30;13.60;99.90
53752;DHT22;41095;53.090;6.692;2023-03-21T15:25:00;13.60;99.90
53752;DHT22;41095;53.090;6.692;2023-03-21T15:27:30;13.60;99.90
53752;DHT22;41095;53.090;6.692;2023-03-21T15:29:57;13.50;99.90
53752;DHT22;41095;53.090;6.692;2023-03-21T15:32:26;13.40;99.90
53752;DHT22;41095;53.090;6.692;2023-03-21T15:35:05;13.30;99.90
53752;DHT22;41095;53.090;6.692;2023-03-21T15:37:34;13.30;99.90
53752;DHT22;41095;53.090;6.692;2023-03-21T15:40:32;13.20;99.90
53752;DHT22;41095;53.090;6.692;2023-03-21T15:43:18;13.20;99.90
53752;DHT22;41095;53.090;6.692;2023-03-21T15:45:52;13.10;99.90
53752;DHT22;41095;53.090;6.692;2023-03-21T15:48:28;13.20;99.90
53752;DHT22;41095;53.090;6.692;2023-03-21T15:51:02;13.20;99.90
53752;DHT22;41095;53.090;6.692;2023-03-21T15:53:34;13.20;99.90
53752;DHT22;41095;53.090;6.692;2023-03-21T15:56:02;13.20;99.90
53752;DHT22;41095;53.090;6.692;2023-03-21T15:58:38;13.10;99.90
53752;DHT22;41095;53.090;6.692;2023-03-21T16:01:16;13.70;99.90
53752;DHT22;41095;53.090;6.692;2023-03-21T16:03:45;13.10;99.90
53752;DHT22;41095;53.090;6.692;2023-03-21T16:08:47;13.10;99.90
53752;DHT22;41095;53.090;6.692;2023-03-21T16:13:49;13.10;99.90
53752;DHT22;41095;53.090;6.692;2023-03-21T16:16:24;13.10;99.90
53752;DHT22;41095;53.090;6.692;2023-03-21T16:18:51;13.10;99.90
53752;DHT22;41095;53.090;6.692;2023-03-21T16:21:19;13.00;99.90
53752;DHT22;41095;53.090;6.692;2023-03-21T16:23:46;13.00;99.90
53752;DHT22;41095;53.090;6.692;2023-03-21T16:26:14;13.00;99.90
53752;DHT22;41095;53.090;6.692;2023-03-21T16:28:41;13.00;99.90
53752;DHT22;41095;53.090;6.692;2023-03-21T16:31:18;13.00;99.90
53752;DHT22;41095;53.090;6.692;2023-03-21T16:33:44;13.00;99.90
53752;DHT22;41095;53.090;6.692;2023-03-21T16:36:18;12.90;99.90
53752;DHT22;41095;53.090;6.692;2023-03-21T16:38:45;12.90;99.90
53752;DHT22;41095;53.090;6.692;2023-03-21T16:41:15;12.90;99.90
53752;DHT22;41095;53.090;6.692;2023-03-21T16:43:42;12.90;99.90
53752;DHT22;41095;53.090;6.692;2023-03-21T16:46:13;12.80;99.90
53752;DHT22;41095;53.090;6.692;2023-03-21T16:48:39;12.90;99.90
53752;DHT22;41095;53.090;6.692;2023-03-21T16:51:05;12.80;99.90
53752;DHT22;41095;53.090;6.692;2023-03-21T16:53:31;12.80;99.90
53752;DHT22;41095;53.090;6.692;2023-03-21T16:55:57;12.70;99.90
53752;DHT22;41095;53.090;6.692;2023-03-21T16:58:27;12.60;99.90
53752;DHT22;41095;53.090;6.692;2023-03-21T17:00:53;12.60;99.90
53752;DHT22;41095;53.090;6.692;2023-03-21T17:03:19;12.50;99.90
53752;DHT22;41095;53.090;6.692;2023-03-21T17:05:46;12.30;99.90
53752;DHT22;41095;53.090;6.692;2023-03-21T17:08:18;12.20;99.90
53752;DHT22;41095;53.090;6.692;2023-03-21T17:10:46;12.00;99.90
53752;DHT22;41095;53.090;6.692;2023-03-21T17:13:12;11.90;99.90
53752;DHT22;41095;53.090;6.692;2023-03-21T17:15:37;11.80;99.90
53752;DHT22;41095;53.090;6.692;2023-03-21T17:18:04;11.70;99.90
53752;DHT22;41095;53.090;6.692;2023-03-21T17:20:32;11.70;99.90
53752;DHT22;41095;53.090;6.692;2023-03-21T17:22:59;11.70;99.90
53752;DHT22;41095;53.090;6.692;2023-03-21T17:25:25;11.60;99.90